sensor_id;sensor_type;location;lat;lon;timestamp;pressure;altitude;pressure_sealevel;temperature
24278;BMP280;12394;42.692;23.314;2023-06-19T00:00:27;95083.03;;;18.43
24278;BMP280;12394;42.692;23.314;2023-06-19T00:02:52;95094.47;;;18.40
24278;BMP280;12394;42.692;23.314;2023-06-19T00:05:18;95092.28;;;18.39
24278;BMP280;12394;42.692;23.314;2023-06-19T00:07:43;95077.22;;;18.36
24278;BMP280;12394;42.692;23.314;2023-06-19T00:10:08;95072.66;;;18.36
24278;BMP280;12394;42.692;23.314;2023-06-19T00:12:34;95082.75;;;18.50
24278;BMP280;12394;42.692;23.314;2023-06-19T00:14:59;95083.50;;;18.51
24278;BMP280;12394;42.692;23.314;2023-06-19T00:17:25;95073.97;;;18.53
24278;BMP280;12394;42.692;23.314;2023-06-19T00:19:52;95067.88;;;18.44
24278;BMP280;12394;42.692;23.314;2023-06-19T00:22:18;95072.47;;;18.52
24278;BMP280;12394;42.692;23.314;2023-06-19T00:24:43;95073.47;;;18.46
24278;BMP280;12394;42.692;23.314;2023-06-19T00:27:09;95073.88;;;18.44
24278;BMP280;12394;42.692;23.314;2023-06-19T00:29:34;95074.00;;;18.41
24278;BMP280;12394;42.692;23.314;2023-06-19T00:32:00;95075.50;;;18.42
24278;BMP280;12394;42.692;23.314;2023-06-19T00:34:26;95062.06;;;18.36
24278;BMP280;12394;42.692;23.314;2023-06-19T00:36:52;95053.31;;;18.27
24278;BMP280;12394;42.692;23.314;2023-06-19T00:39:24;95069.13;;;18.30
24278;BMP280;12394;42.692;23.314;2023-06-19T00:41:54;95061.94;;;18.18
24278;BMP280;12394;42.692;23.314;2023-06-19T00:44:19;95065.16;;;18.13
24278;BMP280;12394;42.692;23.314;2023-06-19T00:46:45;95047.81;;;18.12
24278;BMP280;12394;42.692;23.314;2023-06-19T00:49:12;95065.75;;;18.17
24278;BMP280;12394;42.692;23.314;2023-06-19T00:51:38;95052.09;;;18.18
24278;BMP280;12394;42.692;23.314;2023-06-19T00:54:04;95052.50;;;18.08
24278;BMP280;12394;42.692;23.314;2023-06-19T00:56:31;95043.75;;;17.98
24278;BMP280;12394;42.692;23.314;2023-06-19T00:58:56;95047.44;;;18.01
24278;BMP280;12394;42.692;23.314;2023-06-19T01:01:22;95040.91;;;17.93
24278;BMP280;12394;42.692;23.314;2023-06-19T01:03:49;95019.25;;;17.85
24278;BMP280;12394;42.692;23.314;2023-06-19T01:06:22;95030.31;;;17.93
24278;BMP280;12394;42.692;23.314;2023-06-19T01:09:08;95027.28;;;17.82
24278;BMP280;12394;42.692;23.314;2023-06-19T01:11:39;95040.09;;;17.83
24278;BMP280;12394;42.692;23.314;2023-06-19T01:14:15;95029.00;;;17.75
24278;BMP280;12394;42.692;23.314;2023-06-19T01:16:43;95023.66;;;17.66
24278;BMP280;12394;42.692;23.314;2023-06-19T01:19:10;95026.72;;;17.65
24278;BMP280;12394;42.692;23.314;2023-06-19T01:21:41;95039.81;;;17.68
24278;BMP280;12394;42.692;23.314;2023-06-19T01:24:07;95013.19;;;17.50
24278;BMP280;12394;42.692;23.314;2023-06-19T01:26:32;95034.22;;;17.66
24278;BMP280;12394;42.692;23.314;2023-06-19T01:28:58;95029.91;;;17.60
24278;BMP280;12394;42.692;23.314;2023-06-19T01:31:28;95035.72;;;17.55
24278;BMP280;12394;42.692;23.314;2023-06-19T01:33:57;95041.88;;;17.52
24278;BMP280;12394;42.692;23.314;2023-06-19T01:36:24;95036.25;;;17.50
24278;BMP280;12394;42.692;23.314;2023-06-19T01:38:50;95033.63;;;17.37
24278;BMP280;12394;42.692;23.314;2023-06-19T01:45:03;95048.72;;;17.49
24278;BMP280;12394;42.692;23.314;2023-06-19T01:47:28;95044.63;;;17.48
24278;BMP280;12394;42.692;23.314;2023-06-19T01:49:54;95038.31;;;17.33
24278;BMP280;12394;42.692;23.314;2023-06-19T01:52:19;95045.50;;;17.32
24278;BMP280;12394;42.692;23.314;2023-06-19T01:54:45;95044.63;;;17.35
24278;BMP280;12394;42.692;23.314;2023-06-19T01:57:10;95050.47;;;17.43
24278;BMP280;12394;42.692;23.314;2023-06-19T01:59:36;95056.69;;;17.37
24278;BMP280;12394;42.692;23.314;2023-06-19T02:02:01;95039.06;;;17.21
24278;BMP280;12394;42.692;23.314;2023-06-19T02:04:29;95041.63;;;17.12
24278;BMP280;12394;42.692;23.314;2023-06-19T02:06:54;95055.47;;;17.16
24278;BMP280;12394;42.692;23.314;2023-06-19T02:09:20;95056.19;;;17.04
24278;BMP280;12394;42.692;23.314;2023-06-19T02:11:45;95061.41;;;17.07
24278;BMP280;12394;42.692;23.314;2023-06-19T02:14:12;95063.94;;;16.98
24278;BMP280;12394;42.692;23.314;2023-06-19T02:16:38;95062.06;;;16.99
24278;BMP280;12394;42.692;23.314;2023-06-19T02:19:03;95071.03;;;17.01
24278;BMP280;12394;42.692;23.314;2023-06-19T02:21:29;95064.34;;;16.97
24278;BMP280;12394;42.692;23.314;2023-06-19T02:23:54;95065.97;;;16.94
24278;BMP280;12394;42.692;23.314;2023-06-19T02:26:19;95052.41;;;16.92
24278;BMP280;12394;42.692;23.314;2023-06-19T02:28:45;95067.94;;;16.90
24278;BMP280;12394;42.692;23.314;2023-06-19T02:31:10;95063.09;;;16.88
24278;BMP280;12394;42.692;23.314;2023-06-19T02:33:36;95048.28;;;16.78
24278;BMP280;12394;42.692;23.314;2023-06-19T02:36:02;95071.44;;;16.87
24278;BMP280;12394;42.692;23.314;2023-06-19T02:38:28;95075.13;;;16.77
24278;BMP280;12394;42.692;23.314;2023-06-19T02:40:54;95069.44;;;16.78
24278;BMP280;12394;42.692;23.314;2023-06-19T02:43:20;95079.88;;;16.69
24278;BMP280;12394;42.692;23.314;2023-06-19T02:45:45;95060.94;;;16.58
24278;BMP280;12394;42.692;23.314;2023-06-19T02:48:11;95066.41;;;16.51
24278;BMP280;12394;42.692;23.314;2023-06-19T02:50:36;95076.13;;;16.54
24278;BMP280;12394;42.692;23.314;2023-06-19T02:53:02;95076.88;;;16.55
24278;BMP280;12394;42.692;23.314;2023-06-19T02:55:27;95070.22;;;16.50
24278;BMP280;12394;42.692;23.314;2023-06-19T02:57:52;95065.97;;;16.40
24278;BMP280;12394;42.692;23.314;2023-06-19T03:02:54;95085.09;;;16.44
24278;BMP280;12394;42.692;23.314;2023-06-19T03:05:19;95080.13;;;16.46
24278;BMP280;12394;42.692;23.314;2023-06-19T03:07:45;95087.41;;;16.42
24278;BMP280;12394;42.692;23.314;2023-06-19T03:10:11;95069.13;;;16.35
24278;BMP280;12394;42.692;23.314;2023-06-19T03:12:36;95069.56;;;16.33
24278;BMP280;12394;42.692;23.314;2023-06-19T03:15:01;95087.09;;;16.40
24278;BMP280;12394;42.692;23.314;2023-06-19T03:17:27;95081.63;;;16.47
24278;BMP280;12394;42.692;23.314;2023-06-19T03:19:52;95075.56;;;16.34
24278;BMP280;12394;42.692;23.314;2023-06-19T03:22:20;95067.13;;;16.39
24278;BMP280;12394;42.692;23.314;2023-06-19T03:24:46;95077.19;;;16.44
24278;BMP280;12394;42.692;23.314;2023-06-19T03:27:11;95066.69;;;16.40
24278;BMP280;12394;42.692;23.314;2023-06-19T03:29:37;95080.53;;;16.44
24278;BMP280;12394;42.692;23.314;2023-06-19T03:32:02;95085.09;;;16.44
24278;BMP280;12394;42.692;23.314;2023-06-19T03:34:28;95076.97;;;16.38
24278;BMP280;12394;42.692;23.314;2023-06-19T03:36:53;95074.53;;;16.44
24278;BMP280;12394;42.692;23.314;2023-06-19T03:39:19;95073.47;;;16.41
24278;BMP280;12394;42.692;23.314;2023-06-19T03:41:44;95083.09;;;16.48
24278;BMP280;12394;42.692;23.314;2023-06-19T03:44:09;95085.88;;;16.57
24278;BMP280;12394;42.692;23.314;2023-06-19T03:46:35;95083.47;;;16.63
24278;BMP280;12394;42.692;23.314;2023-06-19T03:49:00;95087.47;;;16.67
24278;BMP280;12394;42.692;23.314;2023-06-19T03:51:27;95078.00;;;16.70
24278;BMP280;12394;42.692;23.314;2023-06-19T03:53:54;95075.66;;;16.72
24278;BMP280;12394;42.692;23.314;2023-06-19T03:56:19;95073.00;;;16.72
24278;BMP280;12394;42.692;23.314;2023-06-19T03:58:45;95087.06;;;16.81
24278;BMP280;12394;42.692;23.314;2023-06-19T04:01:10;95082.34;;;16.89
24278;BMP280;12394;42.692;23.314;2023-06-19T04:03:36;95066.91;;;16.87
24278;BMP280;12394;42.692;23.314;2023-06-19T04:06:01;95080.75;;;17.04
24278;BMP280;12394;42.692;23.314;2023-06-19T04:08:26;95078.94;;;17.14
24278;BMP280;12394;42.692;23.314;2023-06-19T04:10:52;95073.88;;;17.19
24278;BMP280;12394;42.692;23.314;2023-06-19T04:13:17;95081.69;;;17.23
24278;BMP280;12394;42.692;23.314;2023-06-19T04:15:43;95077.97;;;17.33
24278;BMP280;12394;42.692;23.314;2023-06-19T04:18:10;95080.28;;;17.44
24278;BMP280;12394;42.692;23.314;2023-06-19T04:20:35;95079.09;;;17.57
24278;BMP280;12394;42.692;23.314;2023-06-19T04:23:01;95084.94;;;17.65
24278;BMP280;12394;42.692;23.314;2023-06-19T04:25:26;95079.84;;;17.70
24278;BMP280;12394;42.692;23.314;2023-06-19T04:27:52;95040.38;;;17.51
24278;BMP280;12394;42.692;23.314;2023-06-19T04:30:17;95080.53;;;17.84
24278;BMP280;12394;42.692;23.314;2023-06-19T04:32:42;95073.88;;;17.79
24278;BMP280;12394;42.692;23.314;2023-06-19T04:35:09;95087.47;;;18.03
24278;BMP280;12394;42.692;23.314;2023-06-19T04:37:34;95081.91;;;18.10
24278;BMP280;12394;42.692;23.314;2023-06-19T04:40:00;95075.06;;;18.21
24278;BMP280;12394;42.692;23.314;2023-06-19T04:42:25;95084.13;;;18.33
24278;BMP280;12394;42.692;23.314;2023-06-19T04:44:51;95082.75;;;18.50
24278;BMP280;12394;42.692;23.314;2023-06-19T04:47:21;95081.25;;;18.62
24278;BMP280;12394;42.692;23.314;2023-06-19T04:49:47;95075.50;;;18.63
24278;BMP280;12394;42.692;23.314;2023-06-19T04:52:12;95069.94;;;18.71
24278;BMP280;12394;42.692;23.314;2023-06-19T04:54:38;95083.28;;;18.89
24278;BMP280;12394;42.692;23.314;2023-06-19T04:57:03;95073.72;;;18.91
24278;BMP280;12394;42.692;23.314;2023-06-19T04:59:30;95076.97;;;18.95
24278;BMP280;12394;42.692;23.314;2023-06-19T05:01:56;95077.00;;;19.04
24278;BMP280;12394;42.692;23.314;2023-06-19T05:04:22;95085.84;;;19.01
24278;BMP280;12394;42.692;23.314;2023-06-19T05:06:48;95082.88;;;18.99
24278;BMP280;12394;42.692;23.314;2023-06-19T05:09:13;95081.44;;;19.07
24278;BMP280;12394;42.692;23.314;2023-06-19T05:11:39;95078.34;;;19.09
24278;BMP280;12394;42.692;23.314;2023-06-19T05:14:04;95071.00;;;19.13
24278;BMP280;12394;42.692;23.314;2023-06-19T05:16:30;95086.06;;;19.25
24278;BMP280;12394;42.692;23.314;2023-06-19T05:18:55;95082.81;;;19.21
24278;BMP280;12394;42.692;23.314;2023-06-19T05:21:21;95086.03;;;19.16
24278;BMP280;12394;42.692;23.314;2023-06-19T05:23:46;95080.81;;;19.03
24278;BMP280;12394;42.692;23.314;2023-06-19T05:26:16;95091.03;;;19.14
24278;BMP280;12394;42.692;23.314;2023-06-19T05:28:41;95099.44;;;19.22
24278;BMP280;12394;42.692;23.314;2023-06-19T05:31:07;95099.44;;;19.22
24278;BMP280;12394;42.692;23.314;2023-06-19T05:33:32;95106.84;;;19.27
24278;BMP280;12394;42.692;23.314;2023-06-19T05:35:57;95104.53;;;19.38
24278;BMP280;12394;42.692;23.314;2023-06-19T05:38:23;95111.78;;;19.46
24278;BMP280;12394;42.692;23.314;2023-06-19T05:40:51;95112.69;;;19.43
24278;BMP280;12394;42.692;23.314;2023-06-19T05:43:16;95116.09;;;19.53
24278;BMP280;12394;42.692;23.314;2023-06-19T05:45:43;95114.47;;;19.56
24278;BMP280;12394;42.692;23.314;2023-06-19T05:48:09;95105.03;;;19.64
24278;BMP280;12394;42.692;23.314;2023-06-19T05:50:34;95105.22;;;19.69
24278;BMP280;12394;42.692;23.314;2023-06-19T05:53:00;95094.72;;;19.57
24278;BMP280;12394;42.692;23.314;2023-06-19T05:55:25;95104.19;;;19.67
24278;BMP280;12394;42.692;23.314;2023-06-19T05:57:53;95099.16;;;19.60
24278;BMP280;12394;42.692;23.314;2023-06-19T06:00:18;95097.69;;;19.77
24278;BMP280;12394;42.692;23.314;2023-06-19T06:02:44;95114.38;;;19.86
24278;BMP280;12394;42.692;23.314;2023-06-19T06:05:10;95120.00;;;20.07
24278;BMP280;12394;42.692;23.314;2023-06-19T06:07:35;95121.59;;;19.95
24278;BMP280;12394;42.692;23.314;2023-06-19T06:10:01;95117.78;;;20.05
24278;BMP280;12394;42.692;23.314;2023-06-19T06:12:27;95122.94;;;19.99
24278;BMP280;12394;42.692;23.314;2023-06-19T06:14:52;95111.88;;;20.01
24278;BMP280;12394;42.692;23.314;2023-06-19T06:17:18;95124.28;;;20.31
24278;BMP280;12394;42.692;23.314;2023-06-19T06:19:43;95120.59;;;20.38
24278;BMP280;12394;42.692;23.314;2023-06-19T06:22:08;95127.09;;;20.46
24278;BMP280;12394;42.692;23.314;2023-06-19T06:24:34;95127.50;;;20.54
24278;BMP280;12394;42.692;23.314;2023-06-19T06:26:59;95120.72;;;20.62
24278;BMP280;12394;42.692;23.314;2023-06-19T06:29:25;95129.88;;;20.70
24278;BMP280;12394;42.692;23.314;2023-06-19T06:31:50;95137.66;;;20.82
24278;BMP280;12394;42.692;23.314;2023-06-19T06:34:18;95129.53;;;20.77
24278;BMP280;12394;42.692;23.314;2023-06-19T06:36:44;95122.13;;;20.81
24278;BMP280;12394;42.692;23.314;2023-06-19T06:39:10;95118.31;;;20.82
24278;BMP280;12394;42.692;23.314;2023-06-19T06:41:36;95143.41;;;20.81
24278;BMP280;12394;42.692;23.314;2023-06-19T06:44:01;95137.25;;;20.75
24278;BMP280;12394;42.692;23.314;2023-06-19T06:46:27;95132.66;;;20.84
24278;BMP280;12394;42.692;23.314;2023-06-19T06:48:53;95132.44;;;20.97
24278;BMP280;12394;42.692;23.314;2023-06-19T06:51:18;95143.34;;;21.17
24278;BMP280;12394;42.692;23.314;2023-06-19T06:53:44;95133.91;;;21.07
24278;BMP280;12394;42.692;23.314;2023-06-19T06:56:10;95130.94;;;21.05
24278;BMP280;12394;42.692;23.314;2023-06-19T06:58:35;95128.53;;;21.25
24278;BMP280;12394;42.692;23.314;2023-06-19T07:01:01;95127.25;;;21.45
24278;BMP280;12394;42.692;23.314;2023-06-19T07:03:26;95133.09;;;21.58
24278;BMP280;12394;42.692;23.314;2023-06-19T07:05:55;95123.59;;;21.66
24278;BMP280;12394;42.692;23.314;2023-06-19T07:08:20;95128.13;;;21.74
24278;BMP280;12394;42.692;23.314;2023-06-19T07:10:46;95132.03;;;21.88
24278;BMP280;12394;42.692;23.314;2023-06-19T07:13:11;95140.69;;;22.07
24278;BMP280;12394;42.692;23.314;2023-06-19T07:15:37;95138.25;;;22.33
24278;BMP280;12394;42.692;23.314;2023-06-19T07:18:02;95126.06;;;22.55
24278;BMP280;12394;42.692;23.314;2023-06-19T07:20:28;95136.81;;;22.46
24278;BMP280;12394;42.692;23.314;2023-06-19T07:22:53;95133.22;;;22.64
24278;BMP280;12394;42.692;23.314;2023-06-19T07:25:19;95136.75;;;22.99
24278;BMP280;12394;42.692;23.314;2023-06-19T07:27:45;95146.03;;;23.19
24278;BMP280;12394;42.692;23.314;2023-06-19T07:30:11;95139.66;;;23.31
24278;BMP280;12394;42.692;23.314;2023-06-19T07:32:37;95142.59;;;23.47
24278;BMP280;12394;42.692;23.314;2023-06-19T07:35:04;95148.78;;;23.74
24278;BMP280;12394;42.692;23.314;2023-06-19T07:37:29;95154.50;;;23.67
24278;BMP280;12394;42.692;23.314;2023-06-19T07:39:55;95144.03;;;24.04
24278;BMP280;12394;42.692;23.314;2023-06-19T07:42:21;95142.13;;;24.24
24278;BMP280;12394;42.692;23.314;2023-06-19T07:44:46;95133.03;;;23.96
24278;BMP280;12394;42.692;23.314;2023-06-19T07:47:12;95137.00;;;24.21
24278;BMP280;12394;42.692;23.314;2023-06-19T07:49:38;95140.78;;;24.34
24278;BMP280;12394;42.692;23.314;2023-06-19T07:52:04;95148.16;;;24.45
24278;BMP280;12394;42.692;23.314;2023-06-19T07:54:30;95133.81;;;24.68
24278;BMP280;12394;42.692;23.314;2023-06-19T07:56:55;95147.03;;;25.03
24278;BMP280;12394;42.692;23.314;2023-06-19T07:59:21;95144.53;;;25.26
24278;BMP280;12394;42.692;23.314;2023-06-19T08:01:46;95140.09;;;25.54
24278;BMP280;12394;42.692;23.314;2023-06-19T08:04:12;95131.03;;;25.94
24278;BMP280;12394;42.692;23.314;2023-06-19T08:06:37;95140.09;;;26.02
24278;BMP280;12394;42.692;23.314;2023-06-19T08:09:03;95136.75;;;26.18
24278;BMP280;12394;42.692;23.314;2023-06-19T08:11:28;95119.53;;;26.41
24278;BMP280;12394;42.692;23.314;2023-06-19T08:13:54;95145.97;;;26.93
24278;BMP280;12394;42.692;23.314;2023-06-19T08:16:20;95138.41;;;27.14
24278;BMP280;12394;42.692;23.314;2023-06-19T08:18:46;95135.69;;;27.41
24278;BMP280;12394;42.692;23.314;2023-06-19T08:21:12;95135.22;;;27.49
24278;BMP280;12394;42.692;23.314;2023-06-19T08:23:37;95141.41;;;28.12
24278;BMP280;12394;42.692;23.314;2023-06-19T08:26:04;95122.84;;;28.55
24278;BMP280;12394;42.692;23.314;2023-06-19T08:28:33;95142.72;;;29.17
24278;BMP280;12394;42.692;23.314;2023-06-19T08:30:59;95143.19;;;29.51
24278;BMP280;12394;42.692;23.314;2023-06-19T08:33:24;95136.88;;;30.16
24278;BMP280;12394;42.692;23.314;2023-06-19T08:35:50;95130.16;;;30.79
24278;BMP280;12394;42.692;23.314;2023-06-19T08:38:15;95139.88;;;31.32
24278;BMP280;12394;42.692;23.314;2023-06-19T08:40:44;95140.66;;;31.86
24278;BMP280;12394;42.692;23.314;2023-06-19T08:43:09;95131.50;;;32.15
24278;BMP280;12394;42.692;23.314;2023-06-19T08:45:35;95137.22;;;32.25
24278;BMP280;12394;42.692;23.314;2023-06-19T08:48:01;95144.66;;;32.45
24278;BMP280;12394;42.692;23.314;2023-06-19T08:50:33;95144.81;;;32.60
24278;BMP280;12394;42.692;23.314;2023-06-19T08:52:58;95134.19;;;33.17
24278;BMP280;12394;42.692;23.314;2023-06-19T08:55:24;95129.03;;;34.11
24278;BMP280;12394;42.692;23.314;2023-06-19T08:57:50;95132.63;;;34.06
24278;BMP280;12394;42.692;23.314;2023-06-19T09:00:27;95139.97;;;34.26
24278;BMP280;12394;42.692;23.314;2023-06-19T09:03:00;95131.06;;;34.69
24278;BMP280;12394;42.692;23.314;2023-06-19T09:05:27;95133.84;;;35.38
24278;BMP280;12394;42.692;23.314;2023-06-19T09:08:00;95130.44;;;36.63
24278;BMP280;12394;42.692;23.314;2023-06-19T09:10:28;95124.75;;;37.01
24278;BMP280;12394;42.692;23.314;2023-06-19T09:13:01;95128.75;;;37.66
24278;BMP280;12394;42.692;23.314;2023-06-19T09:15:29;95129.63;;;38.38
24278;BMP280;12394;42.692;23.314;2023-06-19T09:18:08;95128.41;;;37.45
24278;BMP280;12394;42.692;23.314;2023-06-19T09:20:37;95116.63;;;37.60
24278;BMP280;12394;42.692;23.314;2023-06-19T09:23:04;95129.94;;;37.98
24278;BMP280;12394;42.692;23.314;2023-06-19T09:25:30;95120.91;;;38.05
24278;BMP280;12394;42.692;23.314;2023-06-19T09:27:57;95114.03;;;38.75
24278;BMP280;12394;42.692;23.314;2023-06-19T09:30:22;95117.00;;;38.96
24278;BMP280;12394;42.692;23.314;2023-06-19T09:32:48;95121.59;;;38.66
24278;BMP280;12394;42.692;23.314;2023-06-19T09:35:14;95111.88;;;39.09
24278;BMP280;12394;42.692;23.314;2023-06-19T09:37:40;95108.94;;;39.53
24278;BMP280;12394;42.692;23.314;2023-06-19T09:40:06;95117.03;;;39.71
24278;BMP280;12394;42.692;23.314;2023-06-19T09:42:40;95121.66;;;39.58
24278;BMP280;12394;42.692;23.314;2023-06-19T09:45:07;95112.25;;;39.62
24278;BMP280;12394;42.692;23.314;2023-06-19T09:47:38;95120.63;;;40.50
24278;BMP280;12394;42.692;23.314;2023-06-19T09:50:05;95119.38;;;40.03
24278;BMP280;12394;42.692;23.314;2023-06-19T09:52:31;95108.28;;;41.20
24278;BMP280;12394;42.692;23.314;2023-06-19T09:54:57;95114.53;;;41.85
24278;BMP280;12394;42.692;23.314;2023-06-19T09:57:25;95104.47;;;41.56
24278;BMP280;12394;42.692;23.314;2023-06-19T09:59:54;95109.09;;;40.92
24278;BMP280;12394;42.692;23.314;2023-06-19T10:02:22;95096.78;;;40.53
24278;BMP280;12394;42.692;23.314;2023-06-19T10:04:55;95109.22;;;41.04
24278;BMP280;12394;42.692;23.314;2023-06-19T10:07:26;95100.53;;;41.59
24278;BMP280;12394;42.692;23.314;2023-06-19T10:10:02;95098.03;;;42.62
24278;BMP280;12394;42.692;23.314;2023-06-19T10:15:15;95088.50;;;41.12
24278;BMP280;12394;42.692;23.314;2023-06-19T10:20:23;95083.16;;;41.36
24278;BMP280;12394;42.692;23.314;2023-06-19T10:25:27;95070.06;;;40.63
24278;BMP280;12394;42.692;23.314;2023-06-19T10:27:54;95063.88;;;40.53
24278;BMP280;12394;42.692;23.314;2023-06-19T10:30:20;95079.81;;;40.35
24278;BMP280;12394;42.692;23.314;2023-06-19T10:32:46;95069.47;;;39.56
24278;BMP280;12394;42.692;23.314;2023-06-19T10:35:13;95061.06;;;38.80
24278;BMP280;12394;42.692;23.314;2023-06-19T10:37:39;95069.06;;;38.14
24278;BMP280;12394;42.692;23.314;2023-06-19T10:40:06;95069.22;;;37.06
24278;BMP280;12394;42.692;23.314;2023-06-19T10:42:35;95050.94;;;35.39
24278;BMP280;12394;42.692;23.314;2023-06-19T10:45:07;95073.41;;;34.71
24278;BMP280;12394;42.692;23.314;2023-06-19T10:47:34;95060.75;;;33.71
24278;BMP280;12394;42.692;23.314;2023-06-19T10:49:59;95070.94;;;32.39
24278;BMP280;12394;42.692;23.314;2023-06-19T10:52:25;95070.25;;;31.99
24278;BMP280;12394;42.692;23.314;2023-06-19T10:54:54;95034.44;;;30.74
24278;BMP280;12394;42.692;23.314;2023-06-19T10:57:29;95048.81;;;29.94
24278;BMP280;12394;42.692;23.314;2023-06-19T10:59:55;95057.34;;;29.55
24278;BMP280;12394;42.692;23.314;2023-06-19T11:02:21;95057.50;;;29.14
24278;BMP280;12394;42.692;23.314;2023-06-19T11:04:47;95056.16;;;28.72
24278;BMP280;12394;42.692;23.314;2023-06-19T11:07:12;95061.34;;;28.65
24278;BMP280;12394;42.692;23.314;2023-06-19T11:09:38;95052.72;;;29.02
24278;BMP280;12394;42.692;23.314;2023-06-19T11:12:03;95052.28;;;29.22
24278;BMP280;12394;42.692;23.314;2023-06-19T11:14:33;95042.13;;;29.09
24278;BMP280;12394;42.692;23.314;2023-06-19T11:17:07;95033.69;;;28.94
24278;BMP280;12394;42.692;23.314;2023-06-19T11:19:33;95041.09;;;28.88
24278;BMP280;12394;42.692;23.314;2023-06-19T11:21:59;95044.03;;;28.85
24278;BMP280;12394;42.692;23.314;2023-06-19T11:24:28;95043.91;;;29.01
24278;BMP280;12394;42.692;23.314;2023-06-19T11:26:56;95049.97;;;29.07
24278;BMP280;12394;42.692;23.314;2023-06-19T11:29:29;95040.44;;;29.06
24278;BMP280;12394;42.692;23.314;2023-06-19T11:32:09;95029.41;;;28.80
24278;BMP280;12394;42.692;23.314;2023-06-19T11:34:36;95035.97;;;28.49
24278;BMP280;12394;42.692;23.314;2023-06-19T11:37:22;95045.75;;;28.17
24278;BMP280;12394;42.692;23.314;2023-06-19T11:39:50;95033.28;;;28.14
24278;BMP280;12394;42.692;23.314;2023-06-19T11:42:17;95032.56;;;28.13
24278;BMP280;12394;42.692;23.314;2023-06-19T11:44:57;95028.38;;;28.53
24278;BMP280;12394;42.692;23.314;2023-06-19T11:47:25;95027.97;;;28.79
24278;BMP280;12394;42.692;23.314;2023-06-19T11:49:51;95032.78;;;28.86
24278;BMP280;12394;42.692;23.314;2023-06-19T11:52:16;95014.63;;;28.92
24278;BMP280;12394;42.692;23.314;2023-06-19T11:54:42;95022.91;;;29.18
24278;BMP280;12394;42.692;23.314;2023-06-19T11:57:09;95014.53;;;28.68
24278;BMP280;12394;42.692;23.314;2023-06-19T11:59:38;95033.50;;;28.57
24278;BMP280;12394;42.692;23.314;2023-06-19T12:02:05;95019.69;;;28.71
24278;BMP280;12394;42.692;23.314;2023-06-19T12:04:30;95017.56;;;28.59
24278;BMP280;12394;42.692;23.314;2023-06-19T12:06:56;95013.97;;;28.81
24278;BMP280;12394;42.692;23.314;2023-06-19T12:09:21;95016.41;;;28.84
24278;BMP280;12394;42.692;23.314;2023-06-19T12:11:47;94989.50;;;28.49
24278;BMP280;12394;42.692;23.314;2023-06-19T12:14:12;95023.22;;;28.55
24278;BMP280;12394;42.692;23.314;2023-06-19T12:16:38;95029.78;;;28.30
24278;BMP280;12394;42.692;23.314;2023-06-19T12:19:03;95021.03;;;28.18
24278;BMP280;12394;42.692;23.314;2023-06-19T12:21:29;95002.28;;;28.02
24278;BMP280;12394;42.692;23.314;2023-06-19T12:23:54;95022.00;;;28.21
24278;BMP280;12394;42.692;23.314;2023-06-19T12:26:20;95013.16;;;28.26
24278;BMP280;12394;42.692;23.314;2023-06-19T12:28:46;95014.97;;;28.48
24278;BMP280;12394;42.692;23.314;2023-06-19T12:31:11;95009.13;;;28.44
24278;BMP280;12394;42.692;23.314;2023-06-19T12:33:37;95002.06;;;28.35
24278;BMP280;12394;42.692;23.314;2023-06-19T12:36:09;95009.19;;;28.33
24278;BMP280;12394;42.692;23.314;2023-06-19T12:38:35;95016.47;;;28.02
24278;BMP280;12394;42.692;23.314;2023-06-19T12:41:02;95013.31;;;27.98
24278;BMP280;12394;42.692;23.314;2023-06-19T12:43:28;95004.44;;;28.14
24278;BMP280;12394;42.692;23.314;2023-06-19T12:45:53;94997.88;;;28.40
24278;BMP280;12394;42.692;23.314;2023-06-19T12:48:18;95003.19;;;28.51
24278;BMP280;12394;42.692;23.314;2023-06-19T12:50:44;95000.72;;;28.53
24278;BMP280;12394;42.692;23.314;2023-06-19T12:53:09;95016.50;;;28.67
24278;BMP280;12394;42.692;23.314;2023-06-19T12:55:36;94987.66;;;28.33
24278;BMP280;12394;42.692;23.314;2023-06-19T12:58:02;95016.16;;;28.17
24278;BMP280;12394;42.692;23.314;2023-06-19T13:00:30;95004.28;;;27.96
24278;BMP280;12394;42.692;23.314;2023-06-19T13:02:56;95017.91;;;28.03
24278;BMP280;12394;42.692;23.314;2023-06-19T13:05:21;95011.84;;;27.97
24278;BMP280;12394;42.692;23.314;2023-06-19T13:07:47;95013.56;;;27.95
24278;BMP280;12394;42.692;23.314;2023-06-19T13:10:12;95006.31;;;27.78
24278;BMP280;12394;42.692;23.314;2023-06-19T13:12:38;95005.47;;;28.00
24278;BMP280;12394;42.692;23.314;2023-06-19T13:15:03;95012.25;;;28.12
24278;BMP280;12394;42.692;23.314;2023-06-19T13:17:30;95003.97;;;28.10
24278;BMP280;12394;42.692;23.314;2023-06-19T13:19:56;94998.16;;;27.95
24278;BMP280;12394;42.692;23.314;2023-06-19T13:22:22;95001.28;;;28.05
24278;BMP280;12394;42.692;23.314;2023-06-19T13:24:48;94993.66;;;28.09
24278;BMP280;12394;42.692;23.314;2023-06-19T13:27:13;95011.78;;;28.14
24278;BMP280;12394;42.692;23.314;2023-06-19T13:29:38;94999.63;;;27.96
24278;BMP280;12394;42.692;23.314;2023-06-19T13:32:06;94994.78;;;27.89
24278;BMP280;12394;42.692;23.314;2023-06-19T13:34:31;95009.00;;;27.84
24278;BMP280;12394;42.692;23.314;2023-06-19T13:36:57;95002.19;;;27.72
24278;BMP280;12394;42.692;23.314;2023-06-19T13:39:22;95002.44;;;27.74
24278;BMP280;12394;42.692;23.314;2023-06-19T13:41:48;94997.50;;;27.83
24278;BMP280;12394;42.692;23.314;2023-06-19T13:44:13;94994.38;;;27.74
24278;BMP280;12394;42.692;23.314;2023-06-19T13:46:38;95005.09;;;27.79
24278;BMP280;12394;42.692;23.314;2023-06-19T13:49:04;94991.16;;;27.81
24278;BMP280;12394;42.692;23.314;2023-06-19T13:51:30;94990.91;;;27.84
24278;BMP280;12394;42.692;23.314;2023-06-19T13:53:56;94982.84;;;27.84
24278;BMP280;12394;42.692;23.314;2023-06-19T13:56:22;94993.00;;;28.03
24278;BMP280;12394;42.692;23.314;2023-06-19T13:58:48;94997.19;;;27.98
24278;BMP280;12394;42.692;23.314;2023-06-19T14:01:14;94988.91;;;27.85
24278;BMP280;12394;42.692;23.314;2023-06-19T14:03:40;94997.06;;;27.68
24278;BMP280;12394;42.692;23.314;2023-06-19T14:06:06;94991.19;;;27.75